Time;durP1;ratioP1;P1;durP2;ratioP2;P2;SDS_P1;SDS_P2;PMS_P1;PMS_P2;Temp;Humidity;BMP_temperature;BMP_pressure;BME280_temperature;BME280_humidity;BME280_pressure;Samples;Min_cycle;Max_cycle;Signal;HPM_P1;HPM_P2
2022/12/11 00:02:33;;;;;;;1999.90;999.90;;;-0.20;99.90;;;;;;6746843;88;20249;-80
2022/12/11 00:12:33;;;;;;;1999.90;999.90;;;-0.20;99.90;;;;;;6745892;88;21040;-79
2022/12/11 00:22:34;;;;;;;1999.90;999.90;;;-0.20;99.90;;;;;;6740293;88;20202;-78
2022/12/11 00:32:34;;;;;;;1999.90;999.90;;;-0.10;99.90;;;;;;6729130;88;20205;-78
2022/12/11 00:42:35;;;;;;;1999.90;999.90;;;0.00;99.90;;;;;;6738086;88;20196;-79
2022/12/11 00:52:36;;;;;;;1999.90;999.90;;;0.10;99.90;;;;;;6745747;88;20184;-77
2022/12/11 01:02:36;;;;;;;1999.90;999.90;;;0.20;99.90;;;;;;6746094;88;20725;-78
2022/12/11 01:12:37;;;;;;;1999.90;999.90;;;0.20;99.90;;;;;;6748854;88;20216;-79
2022/12/11 01:22:38;;;;;;;1999.90;999.90;;;0.20;99.90;;;;;;6746681;88;20202;-79
2022/12/11 01:32:39;;;;;;;1999.90;999.90;;;0.10;99.90;;;;;;6744913;88;20540;-77
2022/12/11 01:42:39;;;;;;;1999.90;999.90;;;0.20;99.90;;;;;;6744737;88;20576;-77
2022/12/11 01:52:42;;;;;;;1999.90;999.90;;;0.40;99.90;;;;;;6745766;88;20625;-79
2022/12/11 02:02:43;;;;;;;1999.90;999.90;;;0.40;99.90;;;;;;6747955;88;20194;-77
2022/12/11 02:12:59;;;;;;;1999.90;999.90;;;0.40;99.90;;;;;;6747789;88;20296;-78
2022/12/11 02:23:23;;;;;;;1999.90;999.90;;;0.30;99.90;;;;;;6745444;88;20218;-78
2022/12/11 02:33:33;;;;;;;1999.90;999.90;;;0.40;99.90;;;;;;6728725;88;20210;-77
2022/12/11 02:43:36;;;;;;;1999.90;999.90;;;0.60;99.90;;;;;;6732334;88;20203;-79
2022/12/11 02:53:38;;;;;;;1999.90;999.90;;;0.40;99.90;;;;;;6726588;88;20212;-77
2022/12/11 03:03:39;;;;;;;1999.90;999.90;;;0.50;99.90;;;;;;6747289;88;20201;-78
2022/12/11 03:13:41;;;;;;;1999.90;999.90;;;0.40;99.90;;;;;;6747208;88;22264;-78
2022/12/11 03:23:57;;;;;;;1999.90;999.90;;;0.50;99.90;;;;;;6747431;88;20291;-78
2022/12/11 03:34:02;;;;;;;1999.90;999.90;;;0.30;99.90;;;;;;6745375;88;20193;-78
2022/12/11 03:44:03;;;;;;;1999.90;999.90;;;0.40;99.90;;;;;;6750018;88;20244;-79
2022/12/11 03:54:04;;;;;;;1999.90;999.90;;;0.50;99.90;;;;;;6740826;88;20215;-78
2022/12/11 04:04:05;;;;;;;1999.90;999.90;;;0.50;99.90;;;;;;6748697;88;20188;-78
2022/12/11 04:24:30;;;;;;;1999.90;999.90;;;0.30;99.90;;;;;;6729242;88;20255;-78
2022/12/11 04:34:31;;;;;;;1999.90;999.90;;;0.50;99.90;;;;;;6730040;88;20237;-76
2022/12/11 04:44:34;;;;;;;1999.90;999.90;;;0.60;99.90;;;;;;6728897;88;20975;-78
2022/12/11 04:54:35;;;;;;;1999.90;999.90;;;0.60;99.90;;;;;;6729353;88;20209;-77
2022/12/11 05:04:36;;;;;;;1999.90;999.90;;;0.50;99.90;;;;;;6730938;88;20365;-77
2022/12/11 05:14:36;;;;;;;1999.90;999.90;;;0.60;99.90;;;;;;6731985;88;20196;-77
2022/12/11 05:24:37;;;;;;;1999.90;999.90;;;0.40;99.90;;;;;;6732095;88;20301;-76
2022/12/11 05:34:38;;;;;;;1999.90;999.90;;;0.30;99.90;;;;;;6730469;88;20348;-77
2022/12/11 05:44:38;;;;;;;1999.90;999.90;;;0.50;99.90;;;;;;6731320;88;20189;-77
2022/12/11 05:54:39;;;;;;;1999.90;999.90;;;0.40;99.90;;;;;;6731634;88;20572;-79
2022/12/11 06:04:39;;;;;;;1999.90;999.90;;;0.40;99.90;;;;;;6732436;88;20197;-78
2022/12/11 06:14:40;;;;;;;1999.90;999.90;;;0.40;99.90;;;;;;6731147;88;20184;-77
2022/12/11 06:24:41;;;;;;;1999.90;999.90;;;0.40;99.90;;;;;;6730724;88;20205;-76
2022/12/11 06:34:41;;;;;;;1999.90;999.90;;;0.40;99.90;;;;;;6731326;88;20239;-77
2022/12/11 06:45:23;;;;;;;1999.90;999.90;;;0.40;99.90;;;;;;6775442;77;20185;-79
2022/12/11 06:55:23;;;;;;;1999.90;999.90;;;0.60;99.90;;;;;;6729851;88;20229;-78
2022/12/11 07:05:24;;;;;;;1999.90;999.90;;;0.50;99.90;;;;;;6726502;88;20693;-78
2022/12/11 07:15:24;;;;;;;1999.90;999.90;;;0.50;99.90;;;;;;6727284;88;20189;-78
2022/12/11 07:25:25;;;;;;;1999.90;999.90;;;0.40;99.90;;;;;;6725133;88;20189;-77
2022/12/11 07:35:25;;;;;;;1999.90;999.90;;;0.40;99.90;;;;;;6725692;88;20180;-78
2022/12/11 07:45:26;;;;;;;1999.90;999.90;;;0.40;99.90;;;;;;6727275;88;20223;-78
2022/12/11 07:55:27;;;;;;;1999.90;999.90;;;0.40;99.90;;;;;;6730485;88;20220;-78
2022/12/11 08:05:27;;;;;;;1999.90;999.90;;;0.40;99.90;;;;;;6729998;88;20668;-78
2022/12/11 08:15:28;;;;;;;1999.90;999.90;;;0.40;99.90;;;;;;6708845;88;21130;-80
2022/12/11 08:25:28;;;;;;;1999.90;999.90;;;0.40;99.90;;;;;;6710525;88;20194;-79
2022/12/11 08:35:29;;;;;;;1999.90;999.90;;;0.40;99.90;;;;;;6709270;88;20211;-78
2022/12/11 08:45:30;;;;;;;1999.90;999.90;;;0.60;99.90;;;;;;6718905;88;20178;-79
2022/12/11 08:55:32;;;;;;;1999.90;999.90;;;0.60;99.90;;;;;;6728068;88;20198;-79
2022/12/11 09:05:32;;;;;;;1999.90;999.90;;;0.60;99.90;;;;;;6712082;88;20595;-80
2022/12/11 09:15:33;;;;;;;1999.90;999.90;;;0.70;99.90;;;;;;6708668;88;20197;-78
2022/12/11 09:25:34;;;;;;;1999.90;999.90;;;0.80;99.90;;;;;;6718689;88;20201;-80
2022/12/11 09:35:34;;;;;;;1999.90;999.90;;;0.80;99.90;;;;;;6728614;88;20631;-81
2022/12/11 09:45:35;;;;;;;1999.90;999.90;;;0.80;99.90;;;;;;6729184;88;20205;-81
2022/12/11 09:56:13;;;;;;;1999.90;999.90;;;0.80;99.90;;;;;;6730447;88;20170;-80
2022/12/11 10:06:26;;;;;;;1999.90;999.90;;;0.80;99.90;;;;;;6729689;88;20501;-78
2022/12/11 10:26:30;;;;;;;1999.90;999.90;;;1.00;99.90;;;;;;6726222;88;20753;-75
2022/12/11 10:36:35;;;;;;;1999.90;999.90;;;1.20;99.90;;;;;;6716794;88;20229;-76
2022/12/11 10:46:36;;;;;;;1999.90;999.90;;;1.30;99.90;;;;;;6714728;88;20507;-75
2022/12/11 10:56:37;;;;;;;1999.90;999.90;;;1.20;99.90;;;;;;6709548;88;20188;-75
2022/12/11 11:06:38;;;;;;;1999.90;999.90;;;1.50;99.90;;;;;;6704807;88;20688;-75
2022/12/11 11:16:40;;;;;;;1999.90;999.90;;;1.60;99.90;;;;;;6709943;88;20673;-75
2022/12/11 11:26:40;;;;;;;1999.90;999.90;;;1.40;99.90;;;;;;6711143;88;20348;-76
2022/12/11 11:36:41;;;;;;;1999.90;999.90;;;1.50;99.90;;;;;;6709934;88;21032;-75
2022/12/11 11:46:46;;;;;;;1999.90;999.90;;;1.90;99.90;;;;;;6705368;88;20182;-75
2022/12/11 11:56:52;;;;;;;1999.90;999.90;;;1.80;99.90;;;;;;6712474;88;20190;-75
2022/12/11 12:07:37;;;;;;;1999.90;999.90;;;2.80;99.90;;;;;;6712155;88;20206;-75
2022/12/11 12:17:50;;;;;;;1999.90;999.90;;;2.80;99.90;;;;;;6663779;88;20189;-75
2022/12/11 12:28:15;;;;;;;1999.90;999.90;;;2.80;99.90;;;;;;6719463;88;20331;-75
2022/12/11 12:38:31;;;;;;;1999.90;999.90;;;2.90;99.90;;;;;;6712662;88;20283;-75
2022/12/11 12:48:33;;;;;;;1999.90;999.90;;;2.60;99.90;;;;;;6712738;88;20196;-78
2022/12/11 12:58:33;;;;;;;1999.90;999.90;;;2.50;99.90;;;;;;6709244;88;20205;-77
2022/12/11 13:08:47;;;;;;;1999.90;999.90;;;2.60;99.90;;;;;;6719922;88;20197;-79
2022/12/11 13:18:47;;;;;;;1999.90;999.90;;;2.70;99.90;;;;;;6724958;88;20225;-75
2022/12/11 13:28:49;;;;;;;1999.90;999.90;;;2.60;99.90;;;;;;6726651;88;20369;-74
2022/12/11 13:39:20;;;;;;;1999.90;999.90;;;2.70;99.90;;;;;;6717374;88;20243;-77
2022/12/11 13:49:28;;;;;;;1999.90;999.90;;;2.60;99.90;;;;;;6723422;88;20232;-75
2022/12/11 13:59:39;;;;;;;1999.90;999.90;;;2.50;99.90;;;;;;6713656;88;20186;-74
2022/12/11 14:09:45;;;;;;;1999.90;999.90;;;2.60;99.90;;;;;;6708595;88;20844;-73
2022/12/11 14:19:48;;;;;;;1999.90;999.90;;;2.30;99.90;;;;;;6714163;88;20186;-74
2022/12/11 14:29:49;;;;;;;1999.90;999.90;;;2.10;99.90;;;;;;6717484;88;20232;-74
2022/12/11 14:39:57;;;;;;;1999.90;999.90;;;2.10;99.90;;;;;;6719793;88;20572;-75
2022/12/11 14:50:20;;;;;;;1999.90;999.90;;;1.90;99.90;;;;;;6722334;88;20513;-75
2022/12/11 15:00:23;;;;;;;1999.90;999.90;;;1.80;99.90;;;;;;6724805;88;20305;-75
2022/12/11 15:10:39;;;;;;;1999.90;999.90;;;1.80;99.90;;;;;;6712838;88;20262;-76
2022/12/11 15:20:40;;;;;;;1999.90;999.90;;;1.70;99.90;;;;;;6714941;88;20198;-75
2022/12/11 15:30:41;;;;;;;1999.90;999.90;;;1.70;99.90;;;;;;6715558;88;20758;-75
2022/12/11 15:40:41;;;;;;;1999.90;999.90;;;1.80;99.90;;;;;;6715625;88;20633;-76
2022/12/11 15:50:42;;;;;;;1999.90;999.90;;;1.60;99.90;;;;;;6718357;88;20209;-74
2022/12/11 16:00:43;;;;;;;1999.90;999.90;;;1.60;99.90;;;;;;6717173;88;20206;-74
2022/12/11 16:10:45;;;;;;;1999.90;999.90;;;1.60;99.90;;;;;;6710055;88;20268;-74
2022/12/11 16:20:46;;;;;;;1999.90;999.90;;;1.50;99.90;;;;;;6736657;76;20256;-75
2022/12/11 16:30:47;;;;;;;1999.90;999.90;;;1.50;99.90;;;;;;6730781;88;20194;-75
2022/12/11 16:40:47;;;;;;;1999.90;999.90;;;1.40;99.90;;;;;;6723882;88;20214;-75
2022/12/11 16:50:48;;;;;;;1999.90;999.90;;;1.30;99.90;;;;;;6721023;88;20208;-76
2022/12/11 17:00:49;;;;;;;1999.90;999.90;;;1.30;99.90;;;;;;6723711;88;20231;-74
2022/12/11 17:10:50;;;;;;;1999.90;999.90;;;1.30;99.90;;;;;;6720660;88;20319;-76
2022/12/11 17:20:51;;;;;;;1999.90;999.90;;;1.30;99.90;;;;;;6722538;88;20209;-77
2022/12/11 17:30:51;;;;;;;1999.90;999.90;;;1.30;99.90;;;;;;6728148;88;20317;-77
2022/12/11 17:40:52;;;;;;;1999.90;999.90;;;1.40;99.90;;;;;;6736566;88;20351;-76
2022/12/11 17:50:53;;;;;;;1999.90;999.90;;;1.30;99.90;;;;;;6731909;88;20240;-76
2022/12/11 18:00:56;;;;;;;1999.90;999.90;;;1.50;99.90;;;;;;6735418;88;20543;-77
2022/12/11 18:11:03;;;;;;;1999.90;999.90;;;1.40;99.90;;;;;;6735364;88;20196;-76
2022/12/11 18:21:03;;;;;;;;;;;1.30;99.90;;;;;;6736622;88;20181;-74
2022/12/11 18:31:04;;;;;;;1999.90;999.90;;;1.30;99.90;;;;;;6735884;88;20069;-75
2022/12/11 18:41:07;;;;;;;1999.90;999.90;;;1.20;99.90;;;;;;6736013;88;20233;-75
2022/12/11 18:51:12;;;;;;;1999.90;999.90;;;1.10;99.90;;;;;;6733391;88;20289;-74
2022/12/11 19:01:18;;;;;;;1999.90;999.90;;;1.10;99.90;;;;;;6722807;88;20275;-74
2022/12/11 19:11:20;;;;;;;;;;;1.00;99.90;;;;;;6719958;88;20703;-75
2022/12/11 19:21:21;;;;;;;1999.90;999.90;;;0.90;99.90;;;;;;6733087;88;20053;-76
2022/12/11 19:31:22;;;;;;;1999.90;999.90;;;0.80;99.90;;;;;;6723457;88;20217;-75
2022/12/11 19:41:27;;;;;;;1999.90;999.90;;;0.80;99.90;;;;;;6728901;88;20272;-75
2022/12/11 19:51:35;;;;;;;1999.90;999.90;;;0.70;99.90;;;;;;6736783;88;20271;-75
2022/12/11 20:01:36;;;;;;;1999.90;999.90;;;0.70;99.90;;;;;;6728388;88;20283;-77
2022/12/11 20:11:39;;;;;;;1999.90;999.90;;;0.70;99.90;;;;;;6721761;88;20627;-76
2022/12/11 20:21:41;;;;;;;1999.90;999.90;;;0.70;99.90;;;;;;6714626;88;20227;-80
2022/12/11 20:31:42;;;;;;;1999.90;999.90;;;0.50;99.90;;;;;;6719807;88;20678;-76
2022/12/11 20:41:42;;;;;;;1999.90;999.90;;;0.50;99.90;;;;;;6721130;88;20197;-77
2022/12/11 20:51:43;;;;;;;1999.90;999.90;;;0.50;99.90;;;;;;6725125;88;20651;-79
2022/12/11 21:01:43;;;;;;;1999.90;999.90;;;0.40;99.90;;;;;;6721806;88;20220;-76
2022/12/11 21:11:44;;;;;;;1999.90;999.90;;;0.50;99.90;;;;;;6728793;88;20236;-76
2022/12/11 21:21:45;;;;;;;1999.90;999.90;;;0.40;99.90;;;;;;6726095;88;20184;-77
2022/12/11 21:31:45;;;;;;;1999.90;999.90;;;0.40;99.90;;;;;;6727259;88;20345;-78
2022/12/11 21:41:46;;;;;;;1999.90;999.90;;;0.30;99.90;;;;;;6735086;88;20707;-78
2022/12/11 21:51:46;;;;;;;1999.90;999.90;;;0.40;99.90;;;;;;6736822;88;20959;-76
2022/12/11 22:01:47;;;;;;;1999.90;999.90;;;0.30;99.90;;;;;;6731347;88;20197;-77
2022/12/11 22:11:47;;;;;;;1999.90;999.90;;;0.40;99.90;;;;;;6728113;88;20177;-77
2022/12/11 22:21:48;;;;;;;1999.90;999.90;;;0.40;99.90;;;;;;6743008;77;20589;-76
2022/12/11 22:31:49;;;;;;;1999.90;999.90;;;0.50;99.90;;;;;;6723593;88;20216;-78
2022/12/11 22:41:49;;;;;;;1999.90;999.90;;;0.60;99.90;;;;;;6713205;88;20215;-75
2022/12/11 22:51:50;;;;;;;1999.90;999.90;;;0.70;99.90;;;;;;6714470;88;20221;-75
2022/12/11 23:01:50;;;;;;;1999.90;999.90;;;0.60;99.90;;;;;;6726097;88;21063;-75
2022/12/11 23:11:51;;;;;;;1999.90;999.90;;;0.50;99.90;;;;;;6714846;88;20346;-75
2022/12/11 23:21:52;;;;;;;1999.90;999.90;;;0.60;99.90;;;;;;6716634;88;20235;-74
2022/12/11 23:31:52;;;;;;;1999.90;999.90;;;0.70;99.90;;;;;;6717189;88;20240;-74
2022/12/11 23:41:53;;;;;;;1999.90;999.90;;;0.60;99.90;;;;;;6715191;88;20613;-76
2022/12/11 23:51:53;;;;;;;1999.90;999.90;;;0.30;99.90;;;;;;6717273;88;20314;-75
